createdAt,value
2018-12-21T00:04:26.155Z,6.4
2018-12-21T00:14:29.585Z,6.4
2018-12-21T00:24:33.027Z,6.5
2018-12-21T00:34:37.468Z,6.6
2018-12-21T00:44:40.897Z,6.5
2018-12-21T00:54:44.342Z,6.4
2018-12-21T01:04:47.737Z,6.5
2018-12-21T01:14:51.182Z,6.5
2018-12-21T01:24:54.621Z,6.6
2018-12-21T01:34:58.037Z,6.7
2018-12-21T01:45:01.484Z,6.7
2018-12-21T01:55:05.044Z,6.7
2018-12-21T02:05:08.445Z,6.8
2018-12-21T02:15:11.901Z,6.9
2018-12-21T02:25:15.312Z,7
2018-12-21T02:35:18.742Z,7
2018-12-21T02:45:22.194Z,7
2018-12-21T02:55:25.598Z,7.1
2018-12-21T03:05:29.031Z,7.1
2018-12-21T03:15:32.454Z,7
2018-12-21T03:25:35.874Z,7.1
2018-12-21T03:35:39.274Z,7.2
2018-12-21T03:45:42.947Z,7.1
2018-12-21T03:55:46.389Z,7.2
2018-12-21T04:05:49.797Z,7.3
2018-12-21T04:15:53.224Z,7.3
2018-12-21T04:25:56.638Z,7.3
2018-12-21T04:36:00.049Z,7
2018-12-21T04:46:03.491Z,7.1
2018-12-21T04:56:06.916Z,7.2
2018-12-21T05:06:10.395Z,7.3
2018-12-21T05:16:14.830Z,7.4
2018-12-21T05:26:18.352Z,7.3
2018-12-21T05:36:21.767Z,7.3
2018-12-21T05:46:25.172Z,7.4
2018-12-21T05:56:28.610Z,7.5
2018-12-21T06:06:32.023Z,7.4
2018-12-21T06:16:35.434Z,7.5
2018-12-21T06:26:40.745Z,7.5
2018-12-21T06:36:44.279Z,7.6
2018-12-21T06:46:47.713Z,7.9
2018-12-21T06:56:51.118Z,7.8
2018-12-21T07:06:54.506Z,7.8
2018-12-21T07:16:57.906Z,7.9
2018-12-21T07:27:01.373Z,8
2018-12-21T07:37:04.764Z,8
2018-12-21T07:47:08.200Z,7.8
2018-12-21T07:57:11.599Z,7.8
2018-12-21T08:07:15.053Z,7.9
2018-12-21T08:17:18.527Z,7.9
2018-12-21T08:27:21.957Z,8.1
2018-12-21T08:37:26.424Z,8
2018-12-21T08:47:29.819Z,8
2018-12-21T08:57:33.263Z,7.9
2018-12-21T09:07:37.310Z,8.1
2018-12-21T09:17:40.861Z,8
2018-12-21T09:27:44.242Z,7.9
2018-12-21T09:37:47.646Z,7.7
2018-12-21T09:47:51.028Z,7.8
2018-12-21T09:57:54.457Z,7.7
2018-12-21T10:07:57.868Z,7.8
2018-12-21T10:18:01.267Z,8
2018-12-21T10:28:04.669Z,8
2018-12-21T10:38:08.077Z,8
2018-12-21T10:48:11.513Z,8.1
2018-12-21T10:58:14.962Z,8
2018-12-21T11:08:18.375Z,8
2018-12-21T11:18:21.775Z,8
2018-12-21T11:28:25.739Z,8
2018-12-21T11:38:29.237Z,8.1
2018-12-21T11:48:32.632Z,8.1
2018-12-21T11:58:36.069Z,8.1
2018-12-21T12:08:39.481Z,8.1
2018-12-21T12:18:42.904Z,8.1
2018-12-21T12:28:46.330Z,8
2018-12-21T12:38:49.753Z,8
2018-12-21T12:48:53.152Z,8
2018-12-21T12:58:56.539Z,8
2018-12-21T13:08:59.926Z,8
2018-12-21T13:19:03.386Z,7.9
2018-12-21T13:29:06.807Z,7.9
2018-12-21T13:39:10.197Z,7.9
2018-12-21T13:49:13.614Z,7.9
2018-12-21T13:59:17.035Z,7.9
2018-12-21T14:09:20.473Z,7.9
2018-12-21T14:19:23.920Z,7.9
2018-12-21T14:29:27.357Z,8
2018-12-21T14:39:30.766Z,8.1
2018-12-21T14:49:34.174Z,8.2
2018-12-21T14:59:37.562Z,8.1
2018-12-21T15:09:40.982Z,8.2
2018-12-21T15:19:44.400Z,8.2
2018-12-21T15:29:47.871Z,8.2
2018-12-21T15:39:52.297Z,8.3
2018-12-21T15:49:55.729Z,8.3
2018-12-21T15:59:59.154Z,8.4
2018-12-21T16:10:02.588Z,8.4
2018-12-21T16:20:05.983Z,8.4
2018-12-21T16:30:09.370Z,8.5
2018-12-21T16:40:12.900Z,8.5
2018-12-21T16:50:16.612Z,8.5
2018-12-21T17:00:20.017Z,8.5
2018-12-21T17:10:23.437Z,8.6
2018-12-21T17:20:26.907Z,8.7
2018-12-21T17:30:30.398Z,8.7
2018-12-21T17:40:33.831Z,8.7
2018-12-21T17:50:37.518Z,8.8
2018-12-21T18:00:41.043Z,8.8
2018-12-21T18:10:44.451Z,8.8
2018-12-21T18:20:47.879Z,8.8
2018-12-21T18:30:51.296Z,8.8
2018-12-21T18:40:54.718Z,8.8
2018-12-21T18:50:58.133Z,8.9
2018-12-21T19:01:01.547Z,8.9
2018-12-21T19:11:04.987Z,8.9
2018-12-21T19:21:08.434Z,8.9
2018-12-21T19:31:11.884Z,8.9
2018-12-21T19:41:15.290Z,9
2018-12-21T19:51:18.726Z,8.9
2018-12-21T20:01:22.149Z,9
2018-12-21T20:11:25.574Z,9.1
2018-12-21T20:21:28.976Z,9.1
2018-12-21T20:31:32.512Z,9.1
2018-12-21T20:41:35.945Z,9.1
2018-12-21T20:51:39.389Z,9.2
2018-12-21T21:01:42.815Z,9.2
2018-12-21T21:11:46.223Z,9.2
2018-12-21T21:21:49.644Z,9.1
2018-12-21T21:31:53.070Z,9.2
2018-12-21T21:41:56.471Z,9.1
2018-12-21T21:51:59.867Z,9.2
2018-12-21T22:02:03.255Z,9.3
2018-12-21T22:12:06.670Z,9.4
2018-12-21T22:22:10.082Z,9.4
2018-12-21T22:32:13.526Z,9.4
2018-12-21T22:42:16.969Z,9.5
2018-12-21T22:52:20.393Z,9.5
2018-12-21T23:02:23.806Z,9.6
2018-12-21T23:12:27.221Z,9.7
2018-12-21T23:22:30.668Z,9.7
2018-12-21T23:32:34.121Z,9.8
2018-12-21T23:42:37.552Z,9.9
2018-12-21T23:52:40.989Z,10
